createdAt,value
2018-06-25T00:01:01.392Z,14.50
2018-06-25T00:06:33.705Z,14.40
2018-06-25T00:14:41.212Z,14.30
2018-06-25T00:17:12.902Z,14.20
2018-06-25T00:19:45.448Z,14.20
2018-06-25T00:22:23.959Z,14.20
2018-06-25T00:24:56.035Z,14.10
2018-06-25T00:27:28.976Z,14.10
2018-06-25T00:30:00.721Z,14.10
2018-06-25T00:32:42.069Z,14.00
2018-06-25T00:35:16.467Z,14.00
2018-06-25T00:40:29.587Z,14.00
2018-06-25T00:43:00.861Z,13.90
2018-06-25T00:45:34.867Z,13.90
2018-06-25T00:48:43.786Z,13.90
2018-06-25T00:51:20.896Z,13.90
2018-06-25T00:53:54.853Z,13.90
2018-06-25T00:56:26.094Z,13.80
2018-06-25T00:59:20.896Z,13.80
2018-06-25T01:02:01.635Z,13.70
2018-06-25T01:04:31.963Z,13.70
2018-06-25T01:07:07.348Z,13.70
2018-06-25T01:09:40.737Z,13.70
2018-06-25T01:12:16.011Z,13.60
2018-06-25T01:14:51.354Z,13.60
2018-06-25T01:17:26.086Z,13.60
2018-06-25T01:19:56.946Z,13.60
2018-06-25T01:22:32.020Z,13.60
2018-06-25T01:25:04.906Z,13.50
2018-06-25T01:27:40.075Z,13.50
2018-06-25T01:30:19.713Z,13.50
2018-06-25T01:32:51.320Z,13.40
2018-06-25T01:35:23.202Z,13.30
2018-06-25T01:37:54.035Z,13.30
2018-06-25T01:40:34.854Z,13.30
2018-06-25T01:43:17.197Z,13.30
2018-06-25T01:46:06.111Z,13.20
2018-06-25T01:48:43.910Z,13.20
2018-06-25T01:51:19.485Z,13.20
2018-06-25T01:53:52.815Z,13.10
2018-06-25T01:56:25.246Z,13.10
2018-06-25T01:58:56.969Z,13.10
2018-06-25T02:01:42.082Z,13.10
2018-06-25T02:04:22.494Z,13.10
2018-06-25T02:06:54.648Z,13.00
2018-06-25T02:09:27.684Z,12.90
2018-06-25T02:12:06.762Z,12.90
2018-06-25T02:14:52.192Z,12.90
2018-06-25T02:17:31.065Z,12.90
2018-06-25T02:20:02.412Z,12.80
2018-06-25T02:22:37.391Z,12.70
2018-06-25T02:25:24.682Z,12.70
2018-06-25T02:27:56.416Z,12.80
2018-06-25T02:30:32.203Z,12.70
2018-06-25T02:33:02.236Z,12.60
2018-06-25T02:35:37.288Z,12.60
2018-06-25T02:40:50.644Z,12.50
2018-06-25T02:43:36.083Z,12.50
2018-06-25T02:46:11.895Z,12.50
2018-06-25T02:48:50.948Z,12.50
2018-06-25T02:51:24.054Z,12.50
2018-06-25T02:53:56.381Z,12.50
2018-06-25T02:56:40.827Z,12.50
2018-06-25T02:59:16.809Z,12.50
2018-06-25T03:01:48.537Z,12.40
2018-06-25T03:04:24.776Z,12.40
2018-06-25T03:07:00.312Z,12.30
2018-06-25T03:09:36.891Z,12.20
2018-06-25T03:12:18.037Z,12.20
2018-06-25T03:14:53.517Z,12.20
2018-06-25T03:17:29.699Z,12.20
2018-06-25T03:20:05.089Z,12.20
2018-06-25T03:22:44.932Z,12.10
2018-06-25T03:25:17.873Z,12.10
2018-06-25T03:27:50.876Z,12.00
2018-06-25T03:32:59.294Z,12.00
2018-06-25T03:35:39.637Z,12.00
2018-06-25T03:38:15.430Z,12.00
2018-06-25T03:40:47.747Z,12.00
2018-06-25T03:43:23.718Z,12.00
2018-06-25T03:45:56.848Z,12.00
2018-06-25T03:48:33.568Z,12.00
2018-06-25T03:51:03.465Z,12.00
2018-06-25T03:53:48.085Z,12.00
2018-06-25T03:56:35.746Z,12.00
2018-06-25T03:59:10.455Z,12.00
2018-06-25T04:01:44.584Z,11.90
2018-06-25T04:04:26.448Z,11.90
2018-06-25T04:06:58.108Z,11.90
2018-06-25T04:09:38.908Z,11.90
2018-06-25T04:12:09.671Z,11.90
2018-06-25T04:14:55.827Z,11.90
2018-06-25T04:17:38.672Z,11.90
2018-06-25T04:20:25.250Z,11.90
2018-06-25T04:23:00.110Z,11.90
2018-06-25T04:25:51.769Z,11.90
2018-06-25T04:28:28.456Z,12.00
2018-06-25T04:31:05.603Z,12.00
2018-06-25T04:33:37.461Z,12.00
2018-06-25T04:36:13.843Z,12.00
2018-06-25T04:38:55.181Z,12.10
2018-06-25T04:41:30.709Z,12.20
2018-06-25T04:44:02.949Z,12.20
2018-06-25T04:46:40.841Z,12.30
2018-06-25T04:49:14.553Z,12.40
2018-06-25T04:51:45.357Z,12.50
2018-06-25T04:54:18.076Z,12.60
2018-06-25T04:56:47.392Z,12.70
2018-06-25T04:59:19.091Z,12.90
2018-06-25T05:01:55.619Z,13.00
2018-06-25T05:04:29.565Z,13.20
2018-06-25T05:07:00.833Z,13.40
2018-06-25T05:09:36.580Z,13.60
2018-06-25T05:12:09.944Z,13.70
2018-06-25T05:14:48.442Z,13.80
2018-06-25T05:17:18.535Z,14.00
2018-06-25T05:19:49.889Z,14.10
2018-06-25T05:22:24.301Z,14.20
2018-06-25T05:25:04.913Z,14.30
2018-06-25T05:30:07.040Z,14.60
2018-06-25T05:32:39.853Z,14.60
2018-06-25T05:35:20.146Z,14.70
2018-06-25T05:38:02.550Z,14.70
2018-06-25T05:40:32.658Z,14.90
2018-06-25T05:43:10.040Z,14.90
2018-06-25T05:45:42.681Z,15.00
2018-06-25T05:48:13.396Z,15.10
2018-06-25T05:50:48.802Z,15.30
2018-06-25T05:53:19.650Z,15.50
2018-06-25T05:55:49.922Z,15.60
2018-06-25T05:58:28.115Z,15.60
2018-06-25T06:01:09.116Z,15.60
2018-06-25T06:03:45.001Z,15.70
2018-06-25T06:09:18.868Z,15.90
2018-06-25T06:11:48.947Z,16.00
2018-06-25T06:14:21.392Z,16.10
2018-06-25T06:16:51.584Z,16.20
2018-06-25T06:19:29.204Z,16.30
2018-06-25T06:22:11.743Z,16.40
2018-06-25T06:24:51.686Z,16.50
2018-06-25T06:27:53.898Z,16.70
2018-06-25T06:32:57.107Z,16.90
2018-06-25T06:38:00.471Z,17.10
2018-06-25T06:43:27.772Z,17.20
2018-06-25T06:46:06.052Z,17.40
2018-06-25T06:51:31.255Z,17.50
2018-06-25T06:54:27.293Z,17.60
2018-06-25T06:57:00.578Z,17.70
2018-06-25T06:59:31.312Z,17.80
2018-06-25T07:02:11.927Z,18.00
2018-06-25T07:04:51.928Z,18.00
2018-06-25T07:07:23.185Z,18.10
2018-06-25T07:09:53.830Z,18.20
2018-06-25T07:12:33.277Z,18.30
2018-06-25T07:15:12.956Z,18.40
2018-06-25T07:17:48.470Z,18.40
2018-06-25T07:20:19.626Z,18.60
2018-06-25T07:23:16.465Z,18.60
2018-06-25T07:26:01.837Z,18.60
2018-06-25T07:28:59.040Z,18.70
2018-06-25T07:31:42.107Z,18.90
2018-06-25T07:34:28.517Z,18.90
2018-06-25T07:37:12.581Z,19.00
2018-06-25T07:40:02.220Z,19.10
2018-06-25T07:42:35.845Z,19.20
2018-06-25T07:45:19.278Z,19.30
2018-06-25T07:48:02.814Z,19.50
2018-06-25T07:50:57.337Z,19.50
2018-06-25T07:56:13.812Z,19.60
2018-06-25T07:58:53.541Z,19.80
2018-06-25T08:01:25.449Z,19.90
2018-06-25T08:04:26.593Z,20.10
2018-06-25T08:06:57.102Z,20.20
2018-06-25T08:09:47.366Z,20.60
2018-06-25T08:12:30.555Z,20.70
2018-06-25T08:15:04.687Z,20.70
2018-06-25T08:18:10.040Z,20.70
2018-06-25T08:21:09.241Z,20.70
2018-06-25T08:23:59.775Z,20.60
2018-06-25T08:26:33.404Z,20.90
2018-06-25T08:32:39.134Z,21.30
2018-06-25T08:35:32.388Z,21.40
2018-06-25T08:38:27.312Z,21.70
2018-06-25T08:41:03.551Z,21.70
2018-06-25T08:43:53.875Z,22.40
2018-06-25T08:46:55.625Z,22.30
2018-06-25T08:49:30.203Z,22.70
2018-06-25T08:52:12.366Z,24.10
2018-06-25T08:54:43.281Z,25.10
2018-06-25T08:57:24.173Z,24.80
2018-06-25T09:00:17.401Z,24.00
2018-06-25T09:03:01.197Z,23.70
2018-06-25T09:06:22.384Z,23.50
2018-06-25T09:09:05.721Z,23.20
2018-06-25T09:11:45.189Z,23.00
2018-06-25T09:14:17.977Z,23.10
2018-06-25T09:17:03.308Z,22.90
2018-06-25T09:19:59.029Z,23.10
2018-06-25T09:25:03.109Z,22.90
2018-06-25T09:33:47.526Z,23.30
2018-06-25T09:36:26.144Z,23.30
2018-06-25T09:38:56.172Z,23.40
2018-06-25T09:41:26.916Z,23.30
2018-06-25T09:44:08.569Z,23.60
2018-06-25T09:46:39.148Z,23.70
2018-06-25T09:49:18.559Z,23.70
2018-06-25T09:51:49.980Z,23.70
2018-06-25T09:54:23.217Z,23.80
2018-06-25T09:57:01.303Z,23.70
2018-06-25T09:59:44.878Z,23.50
2018-06-25T10:02:18.113Z,23.70
2018-06-25T10:04:55.005Z,23.80
2018-06-25T10:07:31.394Z,23.90
2018-06-25T10:10:06.125Z,23.70
2018-06-25T10:12:55.779Z,23.80
2018-06-25T10:15:32.729Z,23.70
2018-06-25T10:18:11.341Z,23.90
2018-06-25T10:20:45.939Z,24.20
2018-06-25T10:23:18.327Z,23.90
2018-06-25T10:25:59.547Z,23.90
2018-06-25T10:28:30.487Z,23.90
2018-06-25T10:31:13.473Z,23.70
2018-06-25T10:33:53.079Z,23.60
2018-06-25T10:36:30.157Z,23.90
2018-06-25T10:39:05.583Z,24.50
2018-06-25T10:41:37.305Z,24.70
2018-06-25T10:44:14.450Z,24.80
2018-06-25T10:46:53.830Z,24.90
2018-06-25T10:49:29.989Z,25.10
2018-06-25T10:52:05.379Z,25.30
2018-06-25T10:54:49.878Z,25.40
2018-06-25T10:57:31.780Z,25.80
2018-06-25T11:00:33.611Z,26.10
2018-06-25T11:03:19.181Z,25.70
2018-06-25T11:05:50.022Z,25.50
2018-06-25T11:08:24.268Z,25.40
2018-06-25T11:11:29.172Z,25.70
2018-06-25T11:14:09.327Z,26.20
2018-06-25T11:17:10.514Z,26.40
2018-06-25T11:20:03.599Z,26.90
2018-06-25T11:22:49.209Z,27.40
2018-06-25T11:25:22.609Z,27.30
2018-06-25T11:28:04.091Z,27.10
2018-06-25T11:30:44.319Z,26.90
2018-06-25T11:33:24.979Z,26.40
2018-06-25T11:36:00.500Z,26.30
2018-06-25T11:38:45.808Z,26.30
2018-06-25T11:41:15.835Z,26.20
2018-06-25T11:43:54.194Z,26.40
2018-06-25T11:46:24.982Z,26.30
2018-06-25T11:49:03.089Z,26.30
2018-06-25T11:51:45.789Z,26.40
2018-06-25T11:54:25.288Z,27.00
2018-06-25T11:56:58.204Z,27.20
2018-06-25T11:59:39.743Z,27.80
2018-06-25T12:02:15.609Z,27.90
2018-06-25T12:04:50.614Z,27.70
2018-06-25T12:07:21.732Z,27.90
2018-06-25T12:10:22.002Z,27.70
2018-06-25T12:13:18.985Z,27.80
2018-06-25T12:15:50.591Z,27.60
2018-06-25T12:18:39.272Z,27.40
2018-06-25T12:21:16.720Z,27.40
2018-06-25T12:26:33.340Z,26.90
2018-06-25T12:29:06.928Z,26.90
2018-06-25T12:31:41.715Z,26.90
2018-06-25T12:34:36.837Z,26.70
2018-06-25T12:37:11.407Z,26.50
2018-06-25T12:39:42.783Z,26.50
2018-06-25T12:42:14.408Z,26.30
2018-06-25T12:45:05.206Z,26.20
2018-06-25T12:47:37.488Z,26.40
2018-06-25T12:50:17.297Z,26.30
2018-06-25T12:56:23.177Z,26.20
2018-06-25T12:59:06.490Z,26.40
2018-06-25T13:01:49.030Z,26.40
2018-06-25T13:04:53.364Z,26.30
2018-06-25T13:07:29.824Z,26.60
2018-06-25T13:10:24.585Z,26.70
2018-06-25T13:13:10.896Z,26.50
2018-06-25T13:15:42.418Z,26.50
2018-06-25T13:18:20.707Z,26.50
2018-06-25T13:20:52.123Z,26.50
2018-06-25T13:23:33.125Z,26.60
2018-06-25T13:26:09.792Z,26.50
2018-06-25T13:28:52.232Z,26.50
2018-06-25T13:31:33.330Z,26.50
2018-06-25T13:34:04.784Z,26.40
2018-06-25T13:36:38.847Z,26.40
2018-06-25T13:39:14.190Z,26.40
2018-06-25T13:41:53.195Z,26.40
2018-06-25T13:44:53.743Z,26.40
2018-06-25T13:47:36.402Z,26.50
2018-06-25T13:50:14.390Z,26.70
2018-06-25T13:52:47.683Z,26.70
2018-06-25T13:55:19.059Z,26.90
2018-06-25T13:57:53.079Z,26.90
2018-06-25T14:00:32.198Z,26.80
2018-06-25T14:03:10.277Z,26.90
2018-06-25T14:05:47.806Z,27.30
2018-06-25T14:08:32.918Z,27.30
2018-06-25T14:11:11.259Z,27.40
2018-06-25T14:13:48.497Z,27.40
2018-06-25T14:19:09.950Z,27.30
2018-06-25T14:22:07.204Z,27.20
2018-06-25T14:25:10.418Z,27.30
2018-06-25T14:27:46.897Z,27.00
2018-06-25T14:30:28.775Z,26.90
2018-06-25T14:33:06.845Z,27.10
2018-06-25T14:35:40.297Z,27.10
2018-06-25T14:38:11.713Z,27.30
2018-06-25T14:43:31.637Z,27.20
2018-06-25T14:46:13.394Z,27.30
2018-06-25T14:48:53.422Z,27.30
2018-06-25T14:51:28.543Z,27.10
2018-06-25T14:54:00.561Z,27.10
2018-06-25T14:56:32.105Z,27.20
2018-06-25T14:59:04.968Z,27.20
2018-06-25T15:01:37.476Z,27.20
2018-06-25T15:04:12.720Z,27.20
2018-06-25T15:06:45.154Z,27.10
2018-06-25T15:09:19.208Z,27.00
2018-06-25T15:11:48.465Z,27.10
2018-06-25T15:14:32.984Z,27.20
2018-06-25T15:17:08.186Z,27.30
2018-06-25T15:19:39.264Z,27.50
2018-06-25T15:22:17.001Z,27.50
2018-06-25T15:24:55.409Z,27.50
2018-06-25T15:27:29.573Z,27.40
2018-06-25T15:30:00.366Z,27.20
2018-06-25T15:32:31.882Z,27.20
2018-06-25T15:35:04.114Z,27.10
2018-06-25T15:37:34.475Z,27.30
2018-06-25T15:40:10.394Z,27.20
2018-06-25T15:42:43.697Z,27.20
2018-06-25T15:45:21.251Z,27.20
2018-06-25T15:47:51.303Z,27.30
2018-06-25T15:50:35.036Z,27.30
2018-06-25T15:53:06.270Z,27.20
2018-06-25T15:55:38.964Z,27.10
2018-06-25T15:58:27.710Z,27.00
2018-06-25T16:01:05.053Z,26.90
2018-06-25T16:03:46.652Z,27.20
2018-06-25T16:06:21.240Z,27.10
2018-06-25T16:08:57.650Z,27.30
2018-06-25T16:11:30.407Z,27.40
2018-06-25T16:14:01.027Z,27.60
2018-06-25T16:16:35.374Z,27.40
2018-06-25T16:19:24.158Z,27.40
2018-06-25T16:21:56.261Z,27.30
2018-06-25T16:24:26.747Z,27.30
2018-06-25T16:26:56.060Z,27.30
2018-06-25T16:29:33.873Z,27.20
2018-06-25T16:32:04.300Z,27.10
2018-06-25T16:34:35.414Z,27.30
2018-06-25T16:37:05.765Z,27.30
2018-06-25T16:39:43.258Z,27.20
2018-06-25T16:42:14.315Z,27.20
2018-06-25T16:44:53.538Z,27.10
2018-06-25T16:47:29.274Z,27.20
2018-06-25T16:50:02.052Z,27.30
2018-06-25T16:52:33.759Z,27.30
2018-06-25T16:55:06.042Z,27.20
2018-06-25T16:57:45.619Z,27.30
2018-06-25T17:00:20.149Z,27.50
2018-06-25T17:02:53.749Z,27.40
2018-06-25T17:05:34.899Z,27.30
2018-06-25T17:08:06.668Z,27.30
2018-06-25T17:10:39.641Z,27.30
2018-06-25T17:13:13.533Z,27.30
2018-06-25T17:15:49.392Z,27.30
2018-06-25T17:18:23.915Z,27.40
2018-06-25T17:20:56.223Z,27.40
2018-06-25T17:23:30.757Z,27.30
2018-06-25T17:26:06.985Z,27.30
2018-06-25T17:28:44.908Z,27.30
2018-06-25T17:31:23.304Z,27.20
2018-06-25T17:33:53.234Z,27.30
2018-06-25T17:36:29.874Z,27.30
2018-06-25T17:41:35.352Z,27.20
2018-06-25T17:44:08.572Z,27.20
2018-06-25T17:46:46.241Z,27.30
2018-06-25T17:49:20.881Z,27.20
2018-06-25T17:51:55.493Z,27.00
2018-06-25T17:54:27.340Z,27.00
2018-06-25T17:56:59.750Z,26.90
2018-06-25T17:59:36.681Z,26.90
2018-06-25T18:02:18.255Z,26.90
2018-06-25T18:04:50.064Z,26.90
2018-06-25T18:07:33.495Z,26.80
2018-06-25T18:10:22.670Z,26.80
2018-06-25T18:12:59.755Z,26.80
2018-06-25T18:15:39.030Z,26.50
2018-06-25T18:18:10.145Z,26.40
2018-06-25T18:20:47.162Z,26.30
2018-06-25T18:23:27.529Z,26.20
2018-06-25T18:25:59.994Z,26.20
2018-06-25T18:28:32.464Z,26.00
2018-06-25T18:31:12.058Z,26.00
2018-06-25T18:33:45.735Z,25.80
2018-06-25T18:36:19.616Z,25.60
2018-06-25T18:38:49.440Z,25.40
2018-06-25T18:41:38.080Z,25.40
2018-06-25T18:44:19.888Z,25.20
2018-06-25T18:46:52.381Z,25.10
2018-06-25T18:49:23.526Z,24.90
2018-06-25T18:52:11.967Z,24.80
2018-06-25T18:54:43.056Z,24.70
2018-06-25T18:57:24.624Z,24.60
2018-06-25T19:00:05.395Z,24.40
2018-06-25T19:02:47.131Z,24.30
2018-06-25T19:05:20.032Z,24.10
2018-06-25T19:07:59.669Z,24.00
2018-06-25T19:10:30.897Z,23.90
2018-06-25T19:13:01.039Z,23.90
2018-06-25T19:15:59.885Z,23.70
2018-06-25T19:18:40.619Z,23.70
2018-06-25T19:21:12.481Z,23.60
2018-06-25T19:23:54.005Z,23.50
2018-06-25T19:26:33.114Z,23.50
2018-06-25T19:29:09.381Z,23.30
2018-06-25T19:31:41.620Z,23.30
2018-06-25T19:34:14.478Z,23.20
2018-06-25T19:39:18.765Z,23.10
2018-06-25T19:41:51.133Z,22.90
2018-06-25T19:44:23.735Z,22.80
2018-06-25T19:47:02.056Z,22.80
2018-06-25T19:49:32.764Z,22.70
2018-06-25T19:52:13.271Z,22.60
2018-06-25T19:54:43.109Z,22.40
2018-06-25T19:57:18.723Z,22.30
2018-06-25T19:59:51.915Z,22.20
2018-06-25T20:02:29.951Z,22.00
2018-06-25T20:05:08.229Z,21.80
2018-06-25T20:07:44.471Z,21.70
2018-06-25T20:10:13.993Z,21.50
2018-06-25T20:12:47.766Z,21.40
2018-06-25T20:15:19.142Z,21.20
2018-06-25T20:17:49.588Z,21.10
2018-06-25T20:20:29.338Z,20.90
2018-06-25T20:23:01.265Z,20.80
2018-06-25T20:25:35.030Z,20.70
2018-06-25T20:28:09.444Z,20.60
2018-06-25T20:33:14.021Z,20.40
2018-06-25T20:35:50.489Z,20.50
2018-06-25T20:38:25.624Z,20.50
2018-06-25T20:41:00.187Z,20.60
2018-06-25T20:43:32.597Z,20.50
2018-06-25T20:46:10.171Z,20.40
2018-06-25T20:48:44.119Z,20.30
2018-06-25T20:51:24.621Z,20.20
2018-06-25T20:53:54.507Z,20.00
2018-06-25T20:56:25.031Z,19.80
2018-06-25T20:59:05.295Z,19.70
2018-06-25T21:01:36.865Z,19.60
2018-06-25T21:04:16.995Z,19.50
2018-06-25T21:06:46.830Z,19.40
2018-06-25T21:09:16.164Z,19.30
2018-06-25T21:11:46.550Z,19.20
2018-06-25T21:14:24.280Z,19.20
2018-06-25T21:17:04.314Z,19.20
2018-06-25T21:19:38.112Z,19.10
2018-06-25T21:22:07.637Z,19.30
2018-06-25T21:24:37.745Z,19.10
2018-06-25T21:27:11.897Z,19.00
2018-06-25T21:29:48.901Z,19.00
2018-06-25T21:32:27.339Z,19.00
2018-06-25T21:35:04.768Z,19.20
2018-06-25T21:37:36.952Z,19.40
2018-06-25T21:40:10.378Z,19.50
2018-06-25T21:42:40.921Z,19.40
2018-06-25T21:45:17.259Z,19.20
2018-06-25T21:47:50.570Z,19.00
2018-06-25T21:50:26.999Z,18.80
2018-06-25T21:53:03.372Z,18.60
2018-06-25T21:55:39.193Z,18.40
2018-06-25T21:58:09.727Z,18.30
2018-06-25T22:00:49.707Z,18.20
2018-06-25T22:03:24.500Z,18.20
2018-06-25T22:05:56.969Z,18.10
2018-06-25T22:08:28.963Z,18.10
2018-06-25T22:13:38.688Z,18.00
2018-06-25T22:16:16.047Z,17.90
2018-06-25T22:18:47.608Z,17.80
2018-06-25T22:21:24.836Z,17.80
2018-06-25T22:23:56.580Z,17.70
2018-06-25T22:26:28.672Z,17.70
2018-06-25T22:29:00.062Z,17.60
2018-06-25T22:31:36.941Z,17.60
2018-06-25T22:36:50.810Z,17.40
2018-06-25T22:39:27.599Z,17.40
2018-06-25T22:41:57.441Z,17.30
2018-06-25T22:47:04.315Z,17.30
2018-06-25T22:49:33.890Z,17.20
2018-06-25T22:52:05.198Z,17.20
2018-06-25T22:54:35.902Z,17.10
2018-06-25T22:57:05.885Z,17.10
2018-06-25T22:59:37.127Z,17.10
2018-06-25T23:02:07.895Z,17.10
2018-06-25T23:04:39.044Z,17.00
2018-06-25T23:07:08.184Z,17.00
2018-06-25T23:09:41.481Z,16.90
2018-06-25T23:12:14.318Z,16.90
2018-06-25T23:14:51.959Z,16.80
2018-06-25T23:17:24.733Z,16.80
2018-06-25T23:19:55.912Z,16.70
2018-06-25T23:22:27.467Z,16.70
2018-06-25T23:27:40.142Z,16.80
2018-06-25T23:30:17.584Z,16.70
2018-06-25T23:32:51.624Z,16.60
2018-06-25T23:35:22.669Z,16.50
2018-06-25T23:37:58.662Z,16.50
2018-06-25T23:40:34.156Z,16.50
2018-06-25T23:45:39.370Z,16.40
2018-06-25T23:48:09.609Z,16.40
2018-06-25T23:50:52.323Z,16.30
2018-06-25T23:53:31.880Z,16.30
2018-06-25T23:56:01.166Z,16.30
2018-06-25T23:58:32.031Z,16.20
